Time;durP1;ratioP1;P1;durP2;ratioP2;P2;SDS_P1;SDS_P2;PMS_P1;PMS_P2;Temp;Humidity;BMP_temperature;BMP_pressure;BME280_temperature;BME280_humidity;BME280_pressure;Samples;Min_cycle;Max_cycle;Signal;HPM_P1;HPM_P2
2023/01/07 00:00:31;;;;;;;25.52;16.92;;;6.00;99.90;;;;;;4975939;28;20064;-81
2023/01/07 00:02:57;;;;;;;33.60;18.75;;;6.00;99.90;;;;;;4975526;28;20119;-81
2023/01/07 00:05:23;;;;;;;24.85;15.73;;;6.00;99.90;;;;;;4993143;28;20023;-81
2023/01/07 00:07:48;;;;;;;37.20;19.77;;;5.90;99.90;;;;;;4992818;28;20019;-81
2023/01/07 00:10:14;;;;;;;41.28;24.77;;;6.00;99.90;;;;;;4975665;28;20054;-81
2023/01/07 00:12:39;;;;;;;37.28;23.60;;;6.00;99.90;;;;;;4975362;28;20022;-81
2023/01/07 00:15:05;;;;;;;30.17;17.80;;;6.00;99.90;;;;;;4975810;28;20122;-80
2023/01/07 00:17:31;;;;;;;26.70;18.60;;;5.90;99.90;;;;;;4992716;28;20037;-81
2023/01/07 00:19:56;;;;;;;34.25;22.08;;;6.00;99.90;;;;;;4975655;28;20018;-80
2023/01/07 00:22:22;;;;;;;35.60;19.83;;;5.90;99.90;;;;;;4975161;28;20030;-81
2023/01/07 00:24:48;;;;;;;34.33;22.48;;;5.90;99.90;;;;;;4992900;28;20040;-81
2023/01/07 00:27:13;;;;;;;33.55;21.92;;;5.90;99.90;;;;;;4992561;28;20383;-81
2023/01/07 00:29:39;;;;;;;32.28;21.48;;;5.90;99.90;;;;;;4992829;28;20387;-82
2023/01/07 00:32:04;;;;;;;32.83;19.58;;;5.90;99.90;;;;;;5060169;28;20030;-81
2023/01/07 00:34:30;;;;;;;26.75;16.58;;;5.90;99.90;;;;;;4974216;28;20023;-81
2023/01/07 00:37:48;;;;;;;30.40;18.77;;;6.00;99.90;;;;;;4955958;28;20502;-81
2023/01/07 00:39:41;;;;;;;29.48;17.98;;;6.00;99.90;;;;;;4982973;28;20034;-81
2023/01/07 00:44:51;;;;;;;27.73;17.27;;;5.90;99.90;;;;;;4973436;28;20405;-81
2023/01/07 00:47:17;;;;;;;21.85;14.13;;;5.90;99.90;;;;;;4956174;28;20018;-81
2023/01/07 00:49:42;;;;;;;20.65;13.27;;;5.90;99.90;;;;;;4992699;28;20034;-80
2023/01/07 00:52:08;;;;;;;23.73;14.63;;;5.90;99.90;;;;;;4992417;28;20041;-81
2023/01/07 00:54:33;;;;;;;21.30;14.00;;;5.90;99.90;;;;;;4974882;28;20026;-81
2023/01/07 00:56:59;;;;;;;20.73;12.63;;;5.80;99.90;;;;;;4975099;28;20536;-81
2023/01/07 00:59:24;;;;;;;23.95;14.43;;;5.80;99.90;;;;;;4975127;28;20026;-81
2023/01/07 01:01:50;;;;;;;28.15;16.80;;;5.80;99.90;;;;;;4992406;28;20026;-81
2023/01/07 01:04:16;;;;;;;23.15;14.00;;;5.80;99.90;;;;;;4992123;28;20038;-81
2023/01/07 01:06:41;;;;;;;46.53;30.45;;;5.80;99.90;;;;;;4992279;28;20022;-81
2023/01/07 01:09:07;;;;;;;37.75;26.00;;;5.80;99.90;;;;;;4974676;28;20441;-81
2023/01/07 01:11:33;;;;;;;34.22;22.23;;;5.80;99.90;;;;;;4974910;28;20051;-81
2023/01/07 01:13:58;;;;;;;49.63;29.88;;;5.80;99.90;;;;;;4992069;28;20034;-80
2023/01/07 01:16:24;;;;;;;39.40;23.05;;;5.80;99.90;;;;;;4992294;28;20049;-81
2023/01/07 01:18:50;;;;;;;37.70;24.63;;;5.70;99.90;;;;;;4991838;28;20071;-81
2023/01/07 01:21:16;;;;;;;29.88;18.80;;;5.70;99.90;;;;;;4974730;28;20034;-81
2023/01/07 01:23:42;;;;;;;24.70;17.10;;;5.60;99.90;;;;;;4991821;28;20035;-81
2023/01/07 01:26:13;;;;;;;25.60;16.35;;;5.60;99.90;;;;;;4974986;28;20080;-81
2023/01/07 01:28:39;;;;;;;28.17;17.42;;;5.50;99.90;;;;;;4991630;28;20026;-81
2023/01/07 01:31:06;;;;;;;27.77;16.85;;;5.50;99.90;;;;;;4992046;28;20026;-81
2023/01/07 01:33:32;;;;;;;31.05;16.60;;;5.40;99.90;;;;;;5009259;28;20038;-81
2023/01/07 01:35:58;;;;;;;21.17;14.18;;;5.40;99.90;;;;;;4972619;28;20019;-81
2023/01/07 01:38:23;;;;;;;35.75;23.48;;;5.30;99.90;;;;;;4954651;28;20065;-80
2023/01/07 01:40:49;;;;;;;25.10;14.57;;;5.30;99.90;;;;;;4990714;28;20038;-81
2023/01/07 01:43:44;;;;;;;17.38;11.70;;;5.30;99.90;;;;;;4976625;28;20034;-81
2023/01/07 01:46:31;;;;;;;24.95;15.60;;;5.30;99.90;;;;;;4942856;28;20096;-81
2023/01/07 01:49:24;;;;;;;16.95;11.90;;;5.30;99.90;;;;;;4954222;28;20404;-81
2023/01/07 01:51:57;;;;;;;22.60;12.80;;;5.30;99.90;;;;;;4954815;28;20023;-81
2023/01/07 01:54:24;;;;;;;16.98;11.52;;;5.30;99.90;;;;;;4972028;28;20026;-81
2023/01/07 01:56:52;;;;;;;16.92;10.95;;;5.30;99.90;;;;;;4972051;28;20026;-81
2023/01/07 01:59:23;;;;;;;16.20;10.77;;;5.30;99.90;;;;;;4971929;28;20581;-81
2023/01/07 02:01:49;;;;;;;21.38;12.20;;;5.30;99.90;;;;;;4955064;28;20023;-81
2023/01/07 02:04:18;;;;;;;16.85;10.38;;;5.30;99.90;;;;;;4987530;28;20555;-81
2023/01/07 02:06:58;;;;;;;15.60;11.02;;;5.30;99.90;;;;;;4991685;28;20030;-81
2023/01/07 02:09:24;;;;;;;21.13;11.05;;;5.30;99.90;;;;;;4973675;28;20383;-81
2023/01/07 02:12:06;;;;;;;17.73;12.15;;;5.30;99.90;;;;;;4970548;28;20047;-81
2023/01/07 02:14:35;;;;;;;20.90;11.88;;;5.30;99.90;;;;;;4970499;28;20077;-81
2023/01/07 02:17:13;;;;;;;16.58;11.20;;;5.30;99.90;;;;;;4970601;28;20034;-81
2023/01/07 02:20:00;;;;;;;16.17;10.45;;;5.30;99.90;;;;;;4971871;28;20034;-81
2023/01/07 02:22:55;;;;;;;20.52;11.93;;;5.30;99.90;;;;;;4970267;28;20126;-81
2023/01/07 02:25:58;;;;;;;15.73;10.52;;;5.30;99.90;;;;;;4972021;28;20042;-81
2023/01/07 02:28:45;;;;;;;17.90;11.70;;;5.40;99.90;;;;;;4970004;28;20400;-81
2023/01/07 02:31:45;;;;;;;18.73;10.90;;;5.40;99.90;;;;;;4971935;28;20106;-81
2023/01/07 02:34:31;;;;;;;24.90;13.93;;;5.30;99.90;;;;;;4954301;28;20415;-81
2023/01/07 02:37:12;;;;;;;19.92;13.50;;;5.40;99.90;;;;;;4952544;28;20115;-81
2023/01/07 02:40:12;;;;;;;16.25;11.45;;;5.40;99.90;;;;;;4961228;28;20077;-81
2023/01/07 02:42:56;;;;;;;21.13;11.98;;;5.40;99.90;;;;;;4966727;28;20038;-81
2023/01/07 02:45:56;;;;;;;14.20;9.20;;;5.40;99.90;;;;;;4951147;28;20051;-81
2023/01/07 02:48:24;;;;;;;19.02;12.35;;;5.40;99.90;;;;;;4950629;28;20089;-81
2023/01/07 02:50:50;;;;;;;15.93;10.80;;;5.40;99.90;;;;;;4951003;28;20481;-81
2023/01/07 02:53:18;;;;;;;16.52;10.20;;;5.40;99.90;;;;;;4951793;28;20106;-81
2023/01/07 02:56:05;;;;;;;17.70;9.82;;;5.40;99.90;;;;;;4950923;28;20030;-80
2023/01/07 02:58:50;;;;;;;13.00;10.30;;;5.30;99.90;;;;;;4950574;28;20032;-81
2023/01/07 03:01:31;;;;;;;15.50;10.40;;;5.30;99.90;;;;;;4952711;28;20063;-81
2023/01/07 03:04:31;;;;;;;14.57;9.80;;;5.30;99.90;;;;;;4953949;28;20035;-80
2023/01/07 03:07:12;;;;;;;18.02;10.82;;;5.30;99.90;;;;;;4954530;28;20028;-81
2023/01/07 03:09:44;;;;;;;18.23;12.02;;;5.30;99.90;;;;;;4954825;28;20027;-81
2023/01/07 03:13:00;;;;;;;20.55;11.95;;;5.30;99.90;;;;;;4957528;28;20080;-81
2023/01/07 03:16:07;;;;;;;17.98;10.93;;;5.30;99.90;;;;;;4899437;29;20040;-81
2023/01/07 03:18:39;;;;;;;21.50;12.52;;;5.30;99.90;;;;;;4957310;28;20126;-81
2023/01/07 03:21:09;;;;;;;22.67;13.00;;;5.30;99.90;;;;;;4974807;28;20030;-81
2023/01/07 03:23:40;;;;;;;21.13;13.77;;;5.30;99.90;;;;;;4974298;28;20046;-80
2023/01/07 03:26:08;;;;;;;23.55;13.65;;;5.30;99.90;;;;;;4957228;28;20038;-80
2023/01/07 03:28:39;;;;;;;21.05;12.95;;;5.30;99.90;;;;;;4976020;28;20025;-81
2023/01/07 03:31:08;;;;;;;20.23;14.38;;;5.30;99.90;;;;;;4976757;28;20042;-81
2023/01/07 03:33:42;;;;;;;26.42;13.98;;;5.30;99.90;;;;;;4993433;28;20559;-80
2023/01/07 03:36:12;;;;;;;24.13;13.50;;;5.30;99.90;;;;;;4976339;28;20027;-81
2023/01/07 03:38:41;;;;;;;23.92;14.00;;;5.30;99.90;;;;;;4975765;28;20503;-80
2023/01/07 03:41:07;;;;;;;24.90;15.50;;;5.30;99.90;;;;;;4992430;28;20071;-81
2023/01/07 03:43:33;;;;;;;27.25;16.65;;;5.30;99.90;;;;;;4973682;28;20042;-81
2023/01/07 03:45:59;;;;;;;24.10;14.52;;;5.30;99.90;;;;;;4956941;28;20049;-81
2023/01/07 03:48:24;;;;;;;23.98;13.35;;;5.30;99.90;;;;;;4973635;28;20027;-81
2023/01/07 03:50:50;;;;;;;25.25;13.70;;;5.20;99.90;;;;;;4974157;28;20030;-81
2023/01/07 03:53:15;;;;;;;73.28;44.40;;;5.20;99.90;;;;;;4973547;28;20066;-81
2023/01/07 03:55:41;;;;;;;90.93;54.83;;;5.20;99.90;;;;;;4956587;28;20019;-81
2023/01/07 03:58:07;;;;;;;110.55;59.38;;;5.10;99.90;;;;;;4969837;28;20026;-81
2023/01/07 04:00:32;;;;;;;42.78;25.60;;;5.10;99.90;;;;;;4975868;28;20026;-81
2023/01/07 04:02:58;;;;;;;26.25;14.63;;;5.10;99.90;;;;;;4992961;28;20026;-81
2023/01/07 04:05:23;;;;;;;25.23;14.18;;;5.00;99.90;;;;;;4993195;28;20475;-80
2023/01/07 04:07:49;;;;;;;34.58;20.30;;;5.00;99.90;;;;;;4975484;28;20058;-81
2023/01/07 04:10:14;;;;;;;31.08;19.88;;;5.00;99.90;;;;;;4975677;28;20053;-80
2023/01/07 04:12:40;;;;;;;33.80;20.92;;;4.90;99.90;;;;;;4974323;28;20027;-81
2023/01/07 04:15:06;;;;;;;52.15;33.03;;;4.90;99.90;;;;;;4993054;28;20479;-80
2023/01/07 04:17:32;;;;;;;40.35;24.48;;;4.80;99.90;;;;;;4975448;28;20044;-80
2023/01/07 04:19:57;;;;;;;51.78;33.17;;;4.80;99.90;;;;;;4975638;28;20117;-80
2023/01/07 04:22:23;;;;;;;43.55;26.33;;;4.80;99.90;;;;;;4993077;28;20030;-81
2023/01/07 04:24:48;;;;;;;82.50;34.45;;;4.80;99.90;;;;;;4975612;28;20039;-80
2023/01/07 04:27:14;;;;;;;30.58;18.92;;;4.70;99.90;;;;;;4992690;28;20113;-80
2023/01/07 04:29:40;;;;;;;36.47;21.65;;;4.70;99.90;;;;;;4992703;28;20020;-81
2023/01/07 04:32:05;;;;;;;38.25;20.90;;;4.70;99.90;;;;;;4993059;28;20053;-80
2023/01/07 04:34:31;;;;;;;34.63;18.75;;;4.70;99.90;;;;;;4961214;28;20043;-80
2023/01/07 04:36:57;;;;;;;34.25;19.63;;;4.70;99.90;;;;;;4956180;28;20026;-80
2023/01/07 04:39:22;;;;;;;28.80;17.83;;;4.70;99.90;;;;;;4969997;28;20049;-80
2023/01/07 04:41:48;;;;;;;25.88;15.50;;;4.70;99.90;;;;;;4991600;28;20391;-81
2023/01/07 04:44:16;;;;;;;40.63;18.73;;;4.70;99.90;;;;;;4961990;28;20035;-81
2023/01/07 04:46:42;;;;;;;54.30;20.02;;;4.70;99.90;;;;;;4955919;28;20446;-81
2023/01/07 04:49:08;;;;;;;29.63;16.45;;;4.70;99.90;;;;;;4955551;28;20023;-80
2023/01/07 04:51:33;;;;;;;27.73;16.75;;;4.70;99.90;;;;;;5056925;28;20019;-81
2023/01/07 04:53:59;;;;;;;26.00;15.77;;;4.60;99.90;;;;;;4955663;28;20133;-81
2023/01/07 04:56:24;;;;;;;27.38;15.25;;;4.60;99.90;;;;;;4955736;28;20027;-81
2023/01/07 04:58:50;;;;;;;27.98;16.30;;;4.60;99.90;;;;;;4955590;28;20027;-81
2023/01/07 05:01:16;;;;;;;39.42;20.13;;;4.60;99.90;;;;;;4955670;28;20027;-80
2023/01/07 05:03:41;;;;;;;33.38;17.50;;;4.60;99.90;;;;;;4955287;28;20045;-81
2023/01/07 05:06:08;;;;;;;31.73;17.48;;;4.50;99.90;;;;;;4955652;28;20106;-81
2023/01/07 05:08:33;;;;;;;27.95;15.88;;;4.50;99.90;;;;;;4955220;28;20026;-81
2023/01/07 05:11:00;;;;;;;34.17;18.70;;;4.60;99.90;;;;;;4955599;28;20062;-81
2023/01/07 05:13:26;;;;;;;35.50;19.08;;;4.60;99.90;;;;;;4972607;28;20034;-81
2023/01/07 05:15:52;;;;;;;39.90;21.77;;;4.60;99.90;;;;;;4955583;28;20388;-81
2023/01/07 05:18:17;;;;;;;61.75;29.38;;;4.60;99.90;;;;;;4972495;28;20050;-80
2023/01/07 05:20:44;;;;;;;50.45;27.40;;;4.50;99.90;;;;;;4972805;28;20490;-80
2023/01/07 05:23:10;;;;;;;42.60;24.05;;;4.50;99.90;;;;;;4972303;28;20084;-80
2023/01/07 05:25:35;;;;;;;45.10;23.10;;;4.50;99.90;;;;;;4972439;28;20027;-81
2023/01/07 05:28:01;;;;;;;43.85;23.23;;;4.50;99.90;;;;;;4954956;28;20015;-80
2023/01/07 05:30:27;;;;;;;38.35;20.60;;;4.50;99.90;;;;;;5059037;28;20399;-81
2023/01/07 05:32:52;;;;;;;38.67;18.77;;;4.60;99.90;;;;;;4991639;28;20026;-81
2023/01/07 05:35:18;;;;;;;42.42;22.38;;;4.60;99.90;;;;;;4974564;28;20109;-80
2023/01/07 05:37:44;;;;;;;36.45;20.08;;;4.60;99.90;;;;;;4974336;28;20105;-81
2023/01/07 05:40:11;;;;;;;39.33;21.38;;;4.50;99.90;;;;;;4991670;28;20072;-81
2023/01/07 05:42:37;;;;;;;34.70;20.02;;;4.60;99.90;;;;;;4987155;28;20096;-81
2023/01/07 05:45:03;;;;;;;40.17;20.67;;;4.60;99.90;;;;;;4972204;28;20488;-80
2023/01/07 05:47:29;;;;;;;38.85;20.50;;;4.60;99.90;;;;;;4971931;28;20110;-81
2023/01/07 05:49:54;;;;;;;36.03;19.50;;;4.60;99.90;;;;;;4955171;28;20114;-81
2023/01/07 05:52:20;;;;;;;45.97;23.85;;;4.60;99.90;;;;;;4971821;28;20113;-80
2023/01/07 05:54:45;;;;;;;36.90;20.02;;;4.60;99.90;;;;;;4972360;28;20019;-81
2023/01/07 05:57:11;;;;;;;37.42;22.02;;;4.60;99.90;;;;;;4972048;28;20030;-81
2023/01/07 05:59:36;;;;;;;37.75;19.58;;;4.60;99.90;;;;;;4971940;28;20075;-80
2023/01/07 06:02:03;;;;;;;44.22;23.77;;;4.70;99.90;;;;;;4954765;28;20385;-80
2023/01/07 06:04:28;;;;;;;45.60;24.35;;;4.70;99.90;;;;;;4954480;28;20062;-80
2023/01/07 06:06:54;;;;;;;42.90;24.42;;;4.70;99.90;;;;;;4992917;28;20099;-81
2023/01/07 06:09:21;;;;;;;44.78;24.60;;;4.70;99.90;;;;;;5004340;28;20502;-81
2023/01/07 06:11:46;;;;;;;48.25;24.60;;;4.70;99.90;;;;;;4973537;28;20426;-81
2023/01/07 06:14:12;;;;;;;46.35;23.30;;;4.80;99.90;;;;;;4991121;28;20022;-82
2023/01/07 06:16:37;;;;;;;49.53;25.20;;;4.70;99.90;;;;;;4973822;28;20030;-81
2023/01/07 06:19:03;;;;;;;57.88;27.67;;;4.70;99.90;;;;;;5021579;28;20039;-80
2023/01/07 06:21:29;;;;;;;54.78;28.10;;;4.70;99.90;;;;;;5080005;28;20016;-80
2023/01/07 06:23:55;;;;;;;105.13;45.33;;;4.70;99.90;;;;;;4990216;28;20484;-81
2023/01/07 06:26:20;;;;;;;96.65;34.35;;;4.70;99.90;;;;;;5059811;28;20023;-81
2023/01/07 06:28:46;;;;;;;125.30;48.40;;;4.70;99.90;;;;;;5019264;28;20052;-81
2023/01/07 06:31:12;;;;;;;65.82;29.08;;;4.70;99.90;;;;;;5021043;28;20028;-81
2023/01/07 06:33:39;;;;;;;91.00;32.25;;;4.70;99.90;;;;;;5021943;28;20114;-80
2023/01/07 06:36:05;;;;;;;71.43;32.85;;;4.70;99.90;;;;;;4987427;28;20018;-80
2023/01/07 06:38:31;;;;;;;208.75;53.60;;;4.70;99.90;;;;;;5012441;28;20042;-80
2023/01/07 06:41:01;;;;;;;71.65;30.23;;;4.80;99.90;;;;;;5000389;28;20078;-80
2023/01/07 06:43:26;;;;;;;187.30;42.95;;;4.70;99.90;;;;;;4973093;28;20046;-80
2023/01/07 06:45:52;;;;;;;169.90;46.03;;;4.70;99.90;;;;;;4973406;28;20138;-81
2023/01/07 06:48:18;;;;;;;122.85;47.40;;;4.70;99.90;;;;;;4990408;28;20018;-81
2023/01/07 06:50:44;;;;;;;183.57;49.95;;;4.70;99.90;;;;;;4973395;28;20019;-81
2023/01/07 06:53:09;;;;;;;153.93;55.85;;;4.70;99.90;;;;;;4973015;28;20041;-80
2023/01/07 06:55:35;;;;;;;134.13;44.60;;;4.70;99.90;;;;;;4973500;28;20042;-80
2023/01/07 06:58:01;;;;;;;111.82;45.10;;;4.70;99.90;;;;;;4990452;28;20027;-80
2023/01/07 07:00:26;;;;;;;99.43;41.33;;;4.70;99.90;;;;;;4973707;28;20030;-80
2023/01/07 07:02:52;;;;;;;86.20;39.97;;;4.70;99.90;;;;;;5040304;28;20037;-80
2023/01/07 07:05:18;;;;;;;124.05;48.05;;;4.70;99.90;;;;;;4954112;28;20051;-80
2023/01/07 07:07:43;;;;;;;183.77;54.35;;;4.70;99.90;;;;;;5000949;28;20506;-80
2023/01/07 07:10:09;;;;;;;105.63;46.92;;;4.70;99.90;;;;;;5004243;28;20049;-80
2023/01/07 07:12:36;;;;;;;171.07;50.00;;;4.70;99.90;;;;;;5000483;28;20053;-80
2023/01/07 07:15:03;;;;;;;93.72;45.08;;;4.80;99.90;;;;;;4989228;28;20031;-80
2023/01/07 07:17:29;;;;;;;164.95;54.38;;;4.80;99.90;;;;;;4990279;28;20475;-80
2023/01/07 07:19:55;;;;;;;119.78;47.30;;;4.80;99.90;;;;;;4990454;28;20023;-81
2023/01/07 07:22:20;;;;;;;109.97;49.42;;;4.80;99.90;;;;;;4988989;28;20023;-80
2023/01/07 07:24:46;;;;;;;104.93;33.30;;;4.90;99.90;;;;;;4998162;28;20074;-81
2023/01/07 07:27:11;;;;;;;79.25;32.97;;;4.90;99.90;;;;;;5045430;28;20024;-81
2023/01/07 07:29:37;;;;;;;173.15;48.63;;;4.90;99.90;;;;;;5014420;28;20020;-81
2023/01/07 07:32:03;;;;;;;197.50;52.55;;;4.90;99.90;;;;;;5054712;28;20035;-80
2023/01/07 07:34:28;;;;;;;111.63;43.45;;;4.90;99.90;;;;;;5092625;28;20493;-81
2023/01/07 07:36:54;;;;;;;89.80;36.58;;;4.90;99.90;;;;;;5074471;28;20470;-80
2023/01/07 07:39:20;;;;;;;84.75;36.53;;;4.90;99.90;;;;;;5042626;28;20079;-81
2023/01/07 07:41:45;;;;;;;85.60;36.78;;;5.00;99.90;;;;;;4989198;28;20035;-79
2023/01/07 07:44:11;;;;;;;79.75;34.95;;;5.00;99.90;;;;;;4975106;28;20076;-80
2023/01/07 07:46:37;;;;;;;81.20;37.28;;;5.00;99.90;;;;;;4986420;28;20088;-81
2023/01/07 07:49:02;;;;;;;74.10;33.75;;;5.00;99.90;;;;;;4992182;28;20038;-80
2023/01/07 07:51:28;;;;;;;83.40;35.25;;;5.00;99.90;;;;;;4992332;28;20026;-80
2023/01/07 07:53:54;;;;;;;62.53;29.88;;;5.00;99.90;;;;;;4991636;28;20048;-81
2023/01/07 07:56:19;;;;;;;68.25;33.20;;;5.10;99.90;;;;;;4990809;28;20018;-81
2023/01/07 07:58:45;;;;;;;84.40;37.53;;;5.10;99.90;;;;;;4987797;28;20034;-81
2023/01/07 08:01:10;;;;;;;123.38;49.17;;;5.10;99.90;;;;;;4990840;28;20075;-81
2023/01/07 08:03:36;;;;;;;146.38;50.65;;;5.10;99.90;;;;;;4990753;28;20133;-80
2023/01/07 08:06:05;;;;;;;97.68;36.75;;;5.10;99.90;;;;;;4986459;28;20020;-81
2023/01/07 08:08:31;;;;;;;82.85;33.78;;;5.10;99.90;;;;;;4991449;28;20069;-81
2023/01/07 08:10:57;;;;;;;89.07;34.95;;;5.10;99.90;;;;;;4991895;28;20081;-80
2023/01/07 08:13:24;;;;;;;331.20;80.97;;;5.10;99.90;;;;;;4991644;28;20023;-80
2023/01/07 08:15:50;;;;;;;126.85;51.05;;;5.00;99.90;;;;;;4987882;28;20026;-82
2023/01/07 08:18:15;;;;;;;126.63;48.85;;;5.00;99.90;;;;;;4977184;28;20429;-82
2023/01/07 08:20:41;;;;;;;130.00;50.45;;;5.00;99.90;;;;;;4991193;28;20025;-81
2023/01/07 08:23:08;;;;;;;236.90;71.63;;;5.10;99.90;;;;;;4973384;28;20130;-80
2023/01/07 08:25:34;;;;;;;149.40;68.30;;;5.10;99.90;;;;;;5050194;28;20030;-80
2023/01/07 08:28:00;;;;;;;195.40;76.97;;;5.10;99.90;;;;;;4990594;28;20365;-80
2023/01/07 08:30:27;;;;;;;159.07;72.95;;;5.10;99.90;;;;;;4969185;28;20058;-80
2023/01/07 08:32:52;;;;;;;200.45;75.32;;;5.20;99.90;;;;;;4976504;28;20046;-80
2023/01/07 08:35:18;;;;;;;170.35;72.18;;;5.20;99.90;;;;;;4990022;28;20053;-80
2023/01/07 08:37:44;;;;;;;106.03;48.72;;;5.20;99.90;;;;;;4991164;28;20033;-80
2023/01/07 08:40:11;;;;;;;126.05;55.53;;;5.30;99.90;;;;;;4977767;28;20037;-80
2023/01/07 08:42:37;;;;;;;102.60;46.78;;;5.30;99.90;;;;;;4977376;28;20019;-80
2023/01/07 08:45:03;;;;;;;97.38;43.47;;;5.30;99.90;;;;;;4989882;28;20046;-80
2023/01/07 08:47:29;;;;;;;68.30;34.83;;;5.40;99.90;;;;;;4990477;28;20042;-80
2023/01/07 08:49:55;;;;;;;121.95;53.50;;;5.40;99.90;;;;;;4974465;28;20480;-79
2023/01/07 08:52:21;;;;;;;131.77;60.90;;;5.40;99.90;;;;;;4983363;28;20080;-81
2023/01/07 08:54:47;;;;;;;102.35;48.00;;;5.40;99.90;;;;;;4990044;28;20121;-81
2023/01/07 08:57:13;;;;;;;66.30;32.95;;;5.50;99.90;;;;;;4989914;28;20034;-81
2023/01/07 08:59:39;;;;;;;71.72;34.70;;;5.40;99.90;;;;;;4989554;28;20506;-81
2023/01/07 09:02:16;;;;;;;70.07;31.70;;;5.50;99.90;;;;;;4989732;28;20026;-80
2023/01/07 09:04:42;;;;;;;70.22;30.92;;;5.50;99.90;;;;;;4984629;28;20072;-80
2023/01/07 09:07:08;;;;;;;80.68;31.73;;;5.50;99.90;;;;;;4984674;28;20018;-80
2023/01/07 09:09:34;;;;;;;119.50;38.28;;;5.50;99.90;;;;;;4991060;28;20042;-80
2023/01/07 09:12:00;;;;;;;81.75;32.45;;;5.60;99.90;;;;;;4990900;28;20541;-80
2023/01/07 09:14:26;;;;;;;76.38;31.92;;;5.70;99.90;;;;;;5011494;28;20028;-80
2023/01/07 09:16:51;;;;;;;71.32;30.15;;;5.80;99.90;;;;;;4998423;28;20080;-81
2023/01/07 09:19:17;;;;;;;65.50;29.42;;;5.80;99.90;;;;;;4989609;28;20029;-81
2023/01/07 09:21:42;;;;;;;81.45;33.38;;;5.70;99.90;;;;;;4991114;28;20030;-80
2023/01/07 09:24:08;;;;;;;78.10;36.40;;;5.70;99.90;;;;;;5031306;28;20035;-81
2023/01/07 09:26:34;;;;;;;63.58;30.48;;;5.80;99.90;;;;;;5031980;28;20026;-80
2023/01/07 09:28:59;;;;;;;67.22;30.70;;;5.90;99.90;;;;;;5013711;28;20106;-80
2023/01/07 09:31:25;;;;;;;67.55;31.60;;;5.90;99.90;;;;;;4994709;28;20038;-80
2023/01/07 09:33:50;;;;;;;88.63;40.58;;;5.90;99.90;;;;;;4989777;28;20023;-80
2023/01/07 09:36:16;;;;;;;95.35;43.22;;;6.00;99.90;;;;;;4987884;28;20110;-80
2023/01/07 09:38:42;;;;;;;77.35;38.28;;;6.00;99.90;;;;;;5026458;28;20471;-80
2023/01/07 09:41:41;;;;;;;76.85;38.17;;;6.10;99.90;;;;;;4988300;28;20042;-80
2023/01/07 09:44:12;;;;;;;74.05;35.70;;;6.10;99.90;;;;;;4987671;28;20031;-81
2023/01/07 09:46:38;;;;;;;66.45;31.50;;;6.10;99.90;;;;;;4989352;28;20484;-81
2023/01/07 09:49:06;;;;;;;72.72;34.92;;;6.20;99.90;;;;;;4980187;28;20033;-81
2023/01/07 09:51:39;;;;;;;92.53;50.22;;;6.30;99.90;;;;;;4989555;28;20035;-81
2023/01/07 09:54:27;;;;;;;75.93;42.47;;;6.30;99.90;;;;;;4972765;28;20046;-80
2023/01/07 09:56:53;;;;;;;112.30;52.42;;;6.40;99.90;;;;;;4991435;28;20484;-81
2023/01/07 09:59:19;;;;;;;95.07;49.40;;;6.60;99.90;;;;;;4990404;28;20026;-80
2023/01/07 10:02:13;;;;;;;62.67;30.73;;;6.70;99.90;;;;;;4989191;28;20026;-80
2023/01/07 10:04:54;;;;;;;60.58;28.98;;;6.70;99.90;;;;;;4988477;28;20043;-80
2023/01/07 10:07:22;;;;;;;66.00;32.17;;;6.70;99.90;;;;;;4970189;28;20690;-80
2023/01/07 10:10:12;;;;;;;115.32;53.88;;;6.70;99.90;;;;;;4967477;28;20524;-80
2023/01/07 10:12:53;;;;;;;70.13;37.42;;;6.70;99.90;;;;;;4985463;28;20025;-80
2023/01/07 10:15:56;;;;;;;51.75;28.50;;;6.70;99.90;;;;;;4985034;28;20027;-80
2023/01/07 10:18:53;;;;;;;56.25;29.05;;;6.80;99.90;;;;;;4966762;28;20121;-81
2023/01/07 10:21:18;;;;;;;59.88;30.45;;;6.80;99.90;;;;;;4984852;28;20160;-81
2023/01/07 10:23:50;;;;;;;54.70;28.40;;;6.80;99.90;;;;;;4968880;28;20117;-81
2023/01/07 10:26:23;;;;;;;59.17;34.23;;;6.80;99.90;;;;;;4987841;28;20026;-80
2023/01/07 10:29:05;;;;;;;56.03;32.03;;;6.80;99.90;;;;;;4987519;28;20265;-80
2023/01/07 10:31:31;;;;;;;62.58;33.53;;;6.90;99.90;;;;;;5058405;28;20032;-80
2023/01/07 10:33:58;;;;;;;55.25;31.42;;;6.90;99.90;;;;;;4988721;28;20400;-81
2023/01/07 10:36:31;;;;;;;106.05;48.13;;;6.90;99.90;;;;;;4971594;28;20027;-79
2023/01/07 10:38:56;;;;;;;62.47;32.13;;;7.00;99.90;;;;;;4965466;28;20483;-80
2023/01/07 10:41:30;;;;;;;54.28;29.02;;;7.00;99.90;;;;;;4991048;28;20027;-80
2023/01/07 10:44:22;;;;;;;51.03;29.50;;;7.10;99.90;;;;;;4977003;28;20053;-81
2023/01/07 10:47:16;;;;;;;45.33;25.50;;;7.20;99.90;;;;;;4965177;28;20039;-80
2023/01/07 10:50:19;;;;;;;46.65;23.88;;;7.20;99.90;;;;;;4954479;28;20439;-80
2023/01/07 10:53:09;;;;;;;46.38;25.45;;;7.30;99.90;;;;;;4953916;28;20027;-80
2023/01/07 10:55:50;;;;;;;45.53;26.55;;;7.40;99.90;;;;;;4954200;28;20042;-80
2023/01/07 10:58:16;;;;;;;42.50;24.23;;;7.40;99.90;;;;;;4971280;28;20459;-80
2023/01/07 11:00:46;;;;;;;44.83;26.67;;;7.40;99.90;;;;;;4954133;28;20050;-80
2023/01/07 11:03:19;;;;;;;46.95;25.67;;;7.50;99.90;;;;;;4971139;28;20031;-80
2023/01/07 11:05:47;;;;;;;54.92;28.52;;;7.50;99.90;;;;;;4954000;28;20022;-81
2023/01/07 11:08:25;;;;;;;44.20;24.60;;;7.60;99.90;;;;;;4971265;28;20029;-80
2023/01/07 11:10:51;;;;;;;48.83;25.80;;;7.60;99.90;;;;;;4971618;28;20496;-80
2023/01/07 11:13:30;;;;;;;47.60;25.70;;;7.60;99.90;;;;;;4971041;28;20027;-81
2023/01/07 11:16:12;;;;;;;53.90;29.35;;;7.60;99.90;;;;;;4953939;28;20037;-80
2023/01/07 11:18:50;;;;;;;50.28;27.10;;;7.60;99.90;;;;;;4970985;28;20027;-80
2023/01/07 11:21:34;;;;;;;40.20;21.73;;;7.60;99.90;;;;;;4971339;28;20088;-79
2023/01/07 11:24:00;;;;;;;39.30;22.45;;;7.50;99.90;;;;;;4957256;28;20054;-81
2023/01/07 11:26:30;;;;;;;43.55;25.08;;;7.40;99.90;;;;;;4974614;28;20110;-80
2023/01/07 11:29:21;;;;;;;45.72;26.88;;;7.40;99.90;;;;;;4964297;28;20152;-80
2023/01/07 11:31:59;;;;;;;47.17;26.73;;;7.40;99.90;;;;;;4993944;28;20058;-80
2023/01/07 11:34:30;;;;;;;52.70;29.00;;;7.40;99.90;;;;;;4976148;28;20034;-81
2023/01/07 11:36:56;;;;;;;45.15;27.25;;;7.50;99.90;;;;;;4976273;28;20125;-80
2023/01/07 11:39:25;;;;;;;43.08;25.25;;;7.50;99.90;;;;;;4983764;28;20113;-80
2023/01/07 11:45:10;;;;;;;40.90;23.48;;;7.60;99.90;;;;;;4974134;28;20545;-80
2023/01/07 11:47:38;;;;;;;45.65;27.10;;;7.60;99.90;;;;;;4977026;28;20087;-80
2023/01/07 11:50:04;;;;;;;35.35;22.40;;;7.60;99.90;;;;;;4993731;28;20030;-80
2023/01/07 11:52:31;;;;;;;35.30;23.20;;;7.60;99.90;;;;;;4993314;28;20033;-80
2023/01/07 11:54:57;;;;;;;33.60;22.15;;;7.70;99.90;;;;;;4993721;28;20030;-80
2023/01/07 11:57:25;;;;;;;36.70;23.42;;;7.70;99.90;;;;;;4975812;28;20022;-80
2023/01/07 12:00:12;;;;;;;30.85;20.00;;;7.80;99.90;;;;;;4993515;28;20054;-81
2023/01/07 12:02:37;;;;;;;27.27;18.95;;;7.90;99.90;;;;;;4975744;28;20420;-80
2023/01/07 12:05:23;;;;;;;26.67;16.60;;;7.90;99.90;;;;;;4976124;28;20030;-80
2023/01/07 12:07:50;;;;;;;26.52;16.40;;;7.90;99.90;;;;;;4975732;28;20023;-80
2023/01/07 12:10:29;;;;;;;28.67;19.05;;;7.90;99.90;;;;;;4993272;28;20045;-80
2023/01/07 12:12:55;;;;;;;41.65;26.73;;;8.00;99.90;;;;;;4975566;28;20026;-80
2023/01/07 12:15:28;;;;;;;34.45;19.67;;;8.10;99.90;;;;;;4993260;28;20107;-82
2023/01/07 12:18:27;;;;;;;41.55;25.05;;;8.20;99.90;;;;;;4975832;28;20084;-80
2023/01/07 12:21:04;;;;;;;13.32;10.10;;;8.30;99.90;;;;;;4993327;28;20014;-80
2023/01/07 12:23:36;;;;;;;19.15;12.70;;;8.40;99.90;;;;;;4992820;28;20417;-81
2023/01/07 12:26:24;;;;;;;47.22;23.25;;;8.30;99.90;;;;;;4975916;28;20152;-81
2023/01/07 12:29:08;;;;;;;20.63;12.55;;;8.30;99.90;;;;;;4995594;28;20037;-81
2023/01/07 12:32:11;;;;;;;16.40;10.95;;;8.20;99.90;;;;;;5060667;28;20113;-80
2023/01/07 12:34:43;;;;;;;14.93;11.07;;;8.20;99.90;;;;;;4956148;28;20031;-81
2023/01/07 12:37:25;;;;;;;17.17;11.77;;;8.20;99.90;;;;;;4973605;28;20023;-81
2023/01/07 12:40:01;;;;;;;21.75;15.00;;;8.20;99.90;;;;;;4983410;28;20022;-81
2023/01/07 12:42:33;;;;;;;31.73;20.20;;;8.20;99.90;;;;;;4990610;28;20018;-80
2023/01/07 12:45:04;;;;;;;34.13;19.88;;;8.20;99.90;;;;;;4956234;28;20042;-81
2023/01/07 12:47:40;;;;;;;44.63;25.05;;;8.20;99.90;;;;;;4955577;28;20035;-81
2023/01/07 12:50:31;;;;;;;39.33;22.70;;;8.10;99.90;;;;;;4972036;28;20026;-82
2023/01/07 12:53:04;;;;;;;35.67;22.83;;;8.20;99.90;;;;;;4955638;28;20023;-81
2023/01/07 12:55:32;;;;;;;;;;;8.20;99.90;;;;;;4956455;28;20031;-81
2023/01/07 12:58:08;;;;;;;24.63;14.23;;;8.20;99.90;;;;;;4955463;28;19906;-81